sensor_id;sensor_type;location;lat;lon;timestamp;temperature;humidity
12853;DHT22;6495;51.808;7.478;2023-09-19T00:01:43;18.00;99.90
12853;DHT22;6495;51.808;7.478;2023-09-19T00:04:17;17.90;99.90
12853;DHT22;6495;51.808;7.478;2023-09-19T00:06:51;17.90;99.90
12853;DHT22;6495;51.808;7.478;2023-09-19T00:09:25;17.90;99.90
12853;DHT22;6495;51.808;7.478;2023-09-19T00:11:54;17.80;99.90
12853;DHT22;6495;51.808;7.478;2023-09-19T00:14:28;17.80;99.90
12853;DHT22;6495;51.808;7.478;2023-09-19T00:16:56;17.80;99.90
12853;DHT22;6495;51.808;7.478;2023-09-19T00:19:31;17.80;99.90
12853;DHT22;6495;51.808;7.478;2023-09-19T00:22:14;17.70;99.90
12853;DHT22;6495;51.808;7.478;2023-09-19T00:24:42;17.70;99.90
12853;DHT22;6495;51.808;7.478;2023-09-19T00:27:12;17.70;99.90
12853;DHT22;6495;51.808;7.478;2023-09-19T00:29:47;17.70;99.90
12853;DHT22;6495;51.808;7.478;2023-09-19T00:32:16;17.70;99.90
12853;DHT22;6495;51.808;7.478;2023-09-19T00:34:44;17.60;99.90
12853;DHT22;6495;51.808;7.478;2023-09-19T00:37:18;17.60;99.90
12853;DHT22;6495;51.808;7.478;2023-09-19T00:39:49;17.60;99.90
12853;DHT22;6495;51.808;7.478;2023-09-19T00:42:20;17.60;99.90
12853;DHT22;6495;51.808;7.478;2023-09-19T00:44:53;17.60;99.90
12853;DHT22;6495;51.808;7.478;2023-09-19T00:47:23;17.60;99.90
12853;DHT22;6495;51.808;7.478;2023-09-19T00:49:57;17.50;99.90
12853;DHT22;6495;51.808;7.478;2023-09-19T00:52:27;17.50;99.90
12853;DHT22;6495;51.808;7.478;2023-09-19T00:54:56;17.50;99.90
12853;DHT22;6495;51.808;7.478;2023-09-19T00:57:27;17.50;99.90
12853;DHT22;6495;51.808;7.478;2023-09-19T01:00:02;17.50;99.90
12853;DHT22;6495;51.808;7.478;2023-09-19T01:02:36;17.50;99.90
12853;DHT22;6495;51.808;7.478;2023-09-19T01:05:07;17.50;99.90
12853;DHT22;6495;51.808;7.478;2023-09-19T01:07:54;17.50;99.90
12853;DHT22;6495;51.808;7.478;2023-09-19T01:10:22;17.50;99.90
12853;DHT22;6495;51.808;7.478;2023-09-19T01:13:03;17.40;99.90
12853;DHT22;6495;51.808;7.478;2023-09-19T01:15:47;17.40;99.90
12853;DHT22;6495;51.808;7.478;2023-09-19T01:18:27;17.40;99.90
12853;DHT22;6495;51.808;7.478;2023-09-19T01:21:07;17.40;99.90
12853;DHT22;6495;51.808;7.478;2023-09-19T01:23:55;17.40;99.90
12853;DHT22;6495;51.808;7.478;2023-09-19T01:30:08;17.40;99.90
12853;DHT22;6495;51.808;7.478;2023-09-19T01:32:38;17.30;99.90
12853;DHT22;6495;51.808;7.478;2023-09-19T01:35:08;17.30;99.90
12853;DHT22;6495;51.808;7.478;2023-09-19T01:37:39;17.30;99.90
12853;DHT22;6495;51.808;7.478;2023-09-19T01:40:12;17.30;99.90
12853;DHT22;6495;51.808;7.478;2023-09-19T01:42:50;17.30;99.90
12853;DHT22;6495;51.808;7.478;2023-09-19T01:45:33;17.30;99.90
12853;DHT22;6495;51.808;7.478;2023-09-19T01:48:17;17.30;99.90
12853;DHT22;6495;51.808;7.478;2023-09-19T01:51:08;17.30;99.90
12853;DHT22;6495;51.808;7.478;2023-09-19T01:53:43;17.30;99.90
12853;DHT22;6495;51.808;7.478;2023-09-19T01:56:24;17.20;99.90
12853;DHT22;6495;51.808;7.478;2023-09-19T01:59:17;17.20;99.90
12853;DHT22;6495;51.808;7.478;2023-09-19T02:01:52;17.20;99.90
12853;DHT22;6495;51.808;7.478;2023-09-19T02:04:23;17.20;99.90
12853;DHT22;6495;51.808;7.478;2023-09-19T02:06:52;17.20;99.90
12853;DHT22;6495;51.808;7.478;2023-09-19T02:09:21;17.20;99.90
12853;DHT22;6495;51.808;7.478;2023-09-19T02:11:50;17.20;99.90
12853;DHT22;6495;51.808;7.478;2023-09-19T02:14:19;17.20;99.90
12853;DHT22;6495;51.808;7.478;2023-09-19T02:16:48;17.10;99.90
12853;DHT22;6495;51.808;7.478;2023-09-19T02:19:18;17.10;99.90
12853;DHT22;6495;51.808;7.478;2023-09-19T02:21:49;17.10;99.90
12853;DHT22;6495;51.808;7.478;2023-09-19T02:24:17;17.10;99.90
12853;DHT22;6495;51.808;7.478;2023-09-19T02:26:46;17.10;99.90
12853;DHT22;6495;51.808;7.478;2023-09-19T02:29:14;17.10;99.90
12853;DHT22;6495;51.808;7.478;2023-09-19T02:31:42;17.10;99.90
12853;DHT22;6495;51.808;7.478;2023-09-19T02:34:13;17.10;99.90
12853;DHT22;6495;51.808;7.478;2023-09-19T02:36:44;17.00;99.90
12853;DHT22;6495;51.808;7.478;2023-09-19T02:39:13;17.00;99.90
12853;DHT22;6495;51.808;7.478;2023-09-19T02:41:41;17.00;99.90
12853;DHT22;6495;51.808;7.478;2023-09-19T02:44:10;17.00;99.90
12853;DHT22;6495;51.808;7.478;2023-09-19T02:46:38;16.90;99.90
12853;DHT22;6495;51.808;7.478;2023-09-19T02:49:08;16.90;99.90
12853;DHT22;6495;51.808;7.478;2023-09-19T02:51:36;16.90;99.90
12853;DHT22;6495;51.808;7.478;2023-09-19T02:54:07;16.90;99.90
12853;DHT22;6495;51.808;7.478;2023-09-19T02:56:36;16.80;99.90
12853;DHT22;6495;51.808;7.478;2023-09-19T02:59:04;16.80;99.90
12853;DHT22;6495;51.808;7.478;2023-09-19T03:01:33;16.80;99.90
12853;DHT22;6495;51.808;7.478;2023-09-19T03:04:01;16.80;99.90
12853;DHT22;6495;51.808;7.478;2023-09-19T03:06:30;16.70;99.90
12853;DHT22;6495;51.808;7.478;2023-09-19T03:08:58;16.70;99.90
12853;DHT22;6495;51.808;7.478;2023-09-19T03:11:28;16.70;99.90
12853;DHT22;6495;51.808;7.478;2023-09-19T03:13:57;16.60;99.90
12853;DHT22;6495;51.808;7.478;2023-09-19T03:16:26;16.60;99.90
12853;DHT22;6495;51.808;7.478;2023-09-19T03:18:58;16.60;99.90
12853;DHT22;6495;51.808;7.478;2023-09-19T03:21:30;16.60;99.90
12853;DHT22;6495;51.808;7.478;2023-09-19T03:23:59;16.60;99.90
12853;DHT22;6495;51.808;7.478;2023-09-19T03:26:28;16.60;99.90
12853;DHT22;6495;51.808;7.478;2023-09-19T03:28:57;16.50;99.90
12853;DHT22;6495;51.808;7.478;2023-09-19T03:31:26;16.50;99.90
12853;DHT22;6495;51.808;7.478;2023-09-19T03:33:54;16.50;99.90
12853;DHT22;6495;51.808;7.478;2023-09-19T03:36:23;16.50;99.90
12853;DHT22;6495;51.808;7.478;2023-09-19T03:38:51;16.40;99.90
12853;DHT22;6495;51.808;7.478;2023-09-19T03:41:19;16.40;99.90
12853;DHT22;6495;51.808;7.478;2023-09-19T03:43:49;16.40;99.90
12853;DHT22;6495;51.808;7.478;2023-09-19T03:46:18;16.40;99.90
12853;DHT22;6495;51.808;7.478;2023-09-19T03:48:46;16.30;99.90
12853;DHT22;6495;51.808;7.478;2023-09-19T03:51:14;16.30;99.90
12853;DHT22;6495;51.808;7.478;2023-09-19T03:53:43;16.30;99.90
12853;DHT22;6495;51.808;7.478;2023-09-19T03:56:11;16.30;99.90
12853;DHT22;6495;51.808;7.478;2023-09-19T03:58:40;16.30;99.90
12853;DHT22;6495;51.808;7.478;2023-09-19T04:01:10;16.30;99.90
12853;DHT22;6495;51.808;7.478;2023-09-19T04:03:40;16.30;99.90
12853;DHT22;6495;51.808;7.478;2023-09-19T04:06:15;16.20;99.90
12853;DHT22;6495;51.808;7.478;2023-09-19T04:08:44;16.20;99.90
12853;DHT22;6495;51.808;7.478;2023-09-19T04:11:14;16.20;99.90
12853;DHT22;6495;51.808;7.478;2023-09-19T04:13:42;16.20;99.90
12853;DHT22;6495;51.808;7.478;2023-09-19T04:16:12;16.20;99.90
12853;DHT22;6495;51.808;7.478;2023-09-19T04:18:40;16.10;99.90
12853;DHT22;6495;51.808;7.478;2023-09-19T04:21:09;16.10;99.90
12853;DHT22;6495;51.808;7.478;2023-09-19T04:23:40;16.10;99.90
12853;DHT22;6495;51.808;7.478;2023-09-19T04:26:09;16.10;99.90
12853;DHT22;6495;51.808;7.478;2023-09-19T04:28:39;16.10;99.90
12853;DHT22;6495;51.808;7.478;2023-09-19T04:31:09;16.10;99.90
12853;DHT22;6495;51.808;7.478;2023-09-19T04:33:40;16.10;99.90
12853;DHT22;6495;51.808;7.478;2023-09-19T04:36:10;16.00;99.90
12853;DHT22;6495;51.808;7.478;2023-09-19T04:38:59;16.00;99.90
12853;DHT22;6495;51.808;7.478;2023-09-19T04:41:32;16.00;99.90
12853;DHT22;6495;51.808;7.478;2023-09-19T04:44:00;16.00;99.90
12853;DHT22;6495;51.808;7.478;2023-09-19T04:46:30;16.00;99.90
12853;DHT22;6495;51.808;7.478;2023-09-19T04:52:15;15.90;99.90
12853;DHT22;6495;51.808;7.478;2023-09-19T04:54:44;15.90;99.90
12853;DHT22;6495;51.808;7.478;2023-09-19T04:57:13;15.90;99.90
12853;DHT22;6495;51.808;7.478;2023-09-19T04:59:50;15.90;99.90
12853;DHT22;6495;51.808;7.478;2023-09-19T05:02:20;15.90;99.90
12853;DHT22;6495;51.808;7.478;2023-09-19T05:04:50;15.80;99.90
12853;DHT22;6495;51.808;7.478;2023-09-19T05:07:21;15.80;99.90
12853;DHT22;6495;51.808;7.478;2023-09-19T05:09:56;15.90;99.90
12853;DHT22;6495;51.808;7.478;2023-09-19T05:12:26;15.80;99.90
12853;DHT22;6495;51.808;7.478;2023-09-19T05:14:54;15.80;99.90
12853;DHT22;6495;51.808;7.478;2023-09-19T05:17:22;15.80;99.90
12853;DHT22;6495;51.808;7.478;2023-09-19T05:20:03;15.80;99.90
12853;DHT22;6495;51.808;7.478;2023-09-19T05:22:42;15.80;99.90
12853;DHT22;6495;51.808;7.478;2023-09-19T05:25:13;15.80;99.90
12853;DHT22;6495;51.808;7.478;2023-09-19T05:27:43;15.80;99.90
12853;DHT22;6495;51.808;7.478;2023-09-19T05:30:12;15.80;99.90
12853;DHT22;6495;51.808;7.478;2023-09-19T05:32:42;15.80;99.90
12853;DHT22;6495;51.808;7.478;2023-09-19T05:35:12;15.80;99.90
12853;DHT22;6495;51.808;7.478;2023-09-19T05:37:46;15.80;99.90
12853;DHT22;6495;51.808;7.478;2023-09-19T05:40:18;15.80;99.90
12853;DHT22;6495;51.808;7.478;2023-09-19T05:42:47;15.70;99.90
12853;DHT22;6495;51.808;7.478;2023-09-19T05:45:18;15.70;99.90
12853;DHT22;6495;51.808;7.478;2023-09-19T05:47:49;15.80;99.90
12853;DHT22;6495;51.808;7.478;2023-09-19T05:50:24;15.80;99.90
12853;DHT22;6495;51.808;7.478;2023-09-19T05:53:06;15.70;99.90
12853;DHT22;6495;51.808;7.478;2023-09-19T05:55:35;15.70;99.90
12853;DHT22;6495;51.808;7.478;2023-09-19T05:58:03;15.70;99.90
12853;DHT22;6495;51.808;7.478;2023-09-19T06:00:33;15.70;99.90
12853;DHT22;6495;51.808;7.478;2023-09-19T06:03:05;15.70;99.90
12853;DHT22;6495;51.808;7.478;2023-09-19T06:05:35;15.70;99.90
12853;DHT22;6495;51.808;7.478;2023-09-19T06:08:07;15.70;99.90
12853;DHT22;6495;51.808;7.478;2023-09-19T06:10:36;15.70;99.90
12853;DHT22;6495;51.808;7.478;2023-09-19T06:13:04;15.70;99.90
12853;DHT22;6495;51.808;7.478;2023-09-19T06:15:36;15.70;99.90
12853;DHT22;6495;51.808;7.478;2023-09-19T06:18:11;15.70;99.90
12853;DHT22;6495;51.808;7.478;2023-09-19T06:20:43;15.70;99.90
12853;DHT22;6495;51.808;7.478;2023-09-19T06:23:12;15.70;99.90
12853;DHT22;6495;51.808;7.478;2023-09-19T06:25:41;15.70;99.90
12853;DHT22;6495;51.808;7.478;2023-09-19T06:28:10;15.80;99.90
12853;DHT22;6495;51.808;7.478;2023-09-19T06:30:40;15.80;99.90
12853;DHT22;6495;51.808;7.478;2023-09-19T06:33:09;15.70;99.90
12853;DHT22;6495;51.808;7.478;2023-09-19T06:35:45;15.80;99.90
12853;DHT22;6495;51.808;7.478;2023-09-19T06:38:14;15.80;99.90
12853;DHT22;6495;51.808;7.478;2023-09-19T06:40:42;15.80;99.90
12853;DHT22;6495;51.808;7.478;2023-09-19T06:43:14;15.80;99.90
12853;DHT22;6495;51.808;7.478;2023-09-19T06:45:42;15.80;99.90
12853;DHT22;6495;51.808;7.478;2023-09-19T06:48:11;15.80;99.90
12853;DHT22;6495;51.808;7.478;2023-09-19T06:50:40;15.80;99.90
12853;DHT22;6495;51.808;7.478;2023-09-19T06:53:12;15.80;99.90
12853;DHT22;6495;51.808;7.478;2023-09-19T06:55:40;15.80;99.90
12853;DHT22;6495;51.808;7.478;2023-09-19T06:58:10;15.90;99.90
12853;DHT22;6495;51.808;7.478;2023-09-19T07:00:39;15.90;99.90
12853;DHT22;6495;51.808;7.478;2023-09-19T07:03:08;15.90;99.90
12853;DHT22;6495;51.808;7.478;2023-09-19T07:05:39;15.90;99.90
12853;DHT22;6495;51.808;7.478;2023-09-19T07:08:11;15.90;99.90
12853;DHT22;6495;51.808;7.478;2023-09-19T07:10:40;15.90;99.90
12853;DHT22;6495;51.808;7.478;2023-09-19T07:13:16;16.00;99.90
12853;DHT22;6495;51.808;7.478;2023-09-19T07:15:45;16.00;99.90
12853;DHT22;6495;51.808;7.478;2023-09-19T07:18:15;16.00;99.90
12853;DHT22;6495;51.808;7.478;2023-09-19T07:20:45;16.00;99.90
12853;DHT22;6495;51.808;7.478;2023-09-19T07:23:19;16.00;99.90
12853;DHT22;6495;51.808;7.478;2023-09-19T07:25:49;16.10;99.90
12853;DHT22;6495;51.808;7.478;2023-09-19T07:28:18;16.10;99.90
12853;DHT22;6495;51.808;7.478;2023-09-19T07:30:46;16.10;99.90
12853;DHT22;6495;51.808;7.478;2023-09-19T07:33:15;16.20;99.90
12853;DHT22;6495;51.808;7.478;2023-09-19T07:35:45;16.20;99.90
12853;DHT22;6495;51.808;7.478;2023-09-19T07:38:14;16.20;99.90
12853;DHT22;6495;51.808;7.478;2023-09-19T07:40:45;16.30;99.90
12853;DHT22;6495;51.808;7.478;2023-09-19T07:43:13;16.30;99.90
12853;DHT22;6495;51.808;7.478;2023-09-19T07:45:42;16.40;99.90
12853;DHT22;6495;51.808;7.478;2023-09-19T07:48:11;16.40;99.90
12853;DHT22;6495;51.808;7.478;2023-09-19T07:50:42;16.40;99.90
12853;DHT22;6495;51.808;7.478;2023-09-19T07:53:12;16.50;99.90
12853;DHT22;6495;51.808;7.478;2023-09-19T07:55:42;16.50;99.90
12853;DHT22;6495;51.808;7.478;2023-09-19T07:58:16;16.50;99.90
12853;DHT22;6495;51.808;7.478;2023-09-19T08:00:45;16.50;99.90
12853;DHT22;6495;51.808;7.478;2023-09-19T08:03:13;16.50;99.90
12853;DHT22;6495;51.808;7.478;2023-09-19T08:05:44;16.60;99.90
12853;DHT22;6495;51.808;7.478;2023-09-19T08:08:13;16.60;99.90
12853;DHT22;6495;51.808;7.478;2023-09-19T08:10:42;16.60;99.90
12853;DHT22;6495;51.808;7.478;2023-09-19T08:13:13;16.70;99.90
12853;DHT22;6495;51.808;7.478;2023-09-19T08:15:45;16.70;99.90
12853;DHT22;6495;51.808;7.478;2023-09-19T08:18:15;16.70;99.90
12853;DHT22;6495;51.808;7.478;2023-09-19T08:20:49;16.70;99.90
12853;DHT22;6495;51.808;7.478;2023-09-19T08:23:18;16.80;99.90
12853;DHT22;6495;51.808;7.478;2023-09-19T08:25:48;16.80;99.90
12853;DHT22;6495;51.808;7.478;2023-09-19T08:28:18;16.80;99.90
12853;DHT22;6495;51.808;7.478;2023-09-19T08:30:51;16.90;99.90
12853;DHT22;6495;51.808;7.478;2023-09-19T08:33:20;17.00;99.90
12853;DHT22;6495;51.808;7.478;2023-09-19T08:35:48;17.00;99.90
12853;DHT22;6495;51.808;7.478;2023-09-19T08:38:17;17.00;99.90
12853;DHT22;6495;51.808;7.478;2023-09-19T08:40:45;17.10;99.90
12853;DHT22;6495;51.808;7.478;2023-09-19T08:43:14;17.10;99.90
12853;DHT22;6495;51.808;7.478;2023-09-19T08:45:44;17.20;99.90
12853;DHT22;6495;51.808;7.478;2023-09-19T08:48:22;17.20;99.90
12853;DHT22;6495;51.808;7.478;2023-09-19T08:50:54;17.20;99.90
12853;DHT22;6495;51.808;7.478;2023-09-19T08:53:30;17.30;99.90
12853;DHT22;6495;51.808;7.478;2023-09-19T08:56:11;17.30;99.90
12853;DHT22;6495;51.808;7.478;2023-09-19T08:58:45;17.30;99.90
12853;DHT22;6495;51.808;7.478;2023-09-19T09:01:22;17.40;99.90
12853;DHT22;6495;51.808;7.478;2023-09-19T09:03:53;17.50;99.90
12853;DHT22;6495;51.808;7.478;2023-09-19T09:06:23;17.50;99.90
12853;DHT22;6495;51.808;7.478;2023-09-19T09:08:53;17.60;99.90
12853;DHT22;6495;51.808;7.478;2023-09-19T09:11:21;17.70;99.90
12853;DHT22;6495;51.808;7.478;2023-09-19T09:13:51;17.70;99.90
12853;DHT22;6495;51.808;7.478;2023-09-19T09:16:21;17.80;99.90
12853;DHT22;6495;51.808;7.478;2023-09-19T09:19:02;17.80;99.90
12853;DHT22;6495;51.808;7.478;2023-09-19T09:21:33;17.90;99.90
12853;DHT22;6495;51.808;7.478;2023-09-19T09:24:26;17.90;99.90
12853;DHT22;6495;51.808;7.478;2023-09-19T09:26:58;18.00;99.90
12853;DHT22;6495;51.808;7.478;2023-09-19T09:29:47;18.10;99.90
12853;DHT22;6495;51.808;7.478;2023-09-19T09:32:21;18.10;99.90
12853;DHT22;6495;51.808;7.478;2023-09-19T09:34:53;18.20;99.90
12853;DHT22;6495;51.808;7.478;2023-09-19T09:37:29;18.30;99.90
12853;DHT22;6495;51.808;7.478;2023-09-19T09:40:02;18.30;99.90
12853;DHT22;6495;51.808;7.478;2023-09-19T09:42:58;18.40;99.90
12853;DHT22;6495;51.808;7.478;2023-09-19T09:45:27;18.50;99.90
12853;DHT22;6495;51.808;7.478;2023-09-19T09:48:06;18.50;99.90
12853;DHT22;6495;51.808;7.478;2023-09-19T09:50:47;18.50;99.90
12853;DHT22;6495;51.808;7.478;2023-09-19T09:53:24;18.60;99.90
12853;DHT22;6495;51.808;7.478;2023-09-19T09:56:00;18.60;99.90
12853;DHT22;6495;51.808;7.478;2023-09-19T09:58:33;18.70;99.90
12853;DHT22;6495;51.808;7.478;2023-09-19T10:01:03;18.70;99.90
12853;DHT22;6495;51.808;7.478;2023-09-19T10:03:39;18.70;99.90
12853;DHT22;6495;51.808;7.478;2023-09-19T10:06:12;18.80;99.90
12853;DHT22;6495;51.808;7.478;2023-09-19T10:09:04;18.80;99.90
12853;DHT22;6495;51.808;7.478;2023-09-19T10:11:42;19.00;99.90
12853;DHT22;6495;51.808;7.478;2023-09-19T10:14:13;19.10;99.90
12853;DHT22;6495;51.808;7.478;2023-09-19T10:16:46;19.20;99.90
12853;DHT22;6495;51.808;7.478;2023-09-19T10:19:21;19.30;99.90
12853;DHT22;6495;51.808;7.478;2023-09-19T10:22:01;19.30;99.90
12853;DHT22;6495;51.808;7.478;2023-09-19T10:24:33;19.40;99.90
12853;DHT22;6495;51.808;7.478;2023-09-19T10:27:35;19.50;99.90
12853;DHT22;6495;51.808;7.478;2023-09-19T10:30:17;19.60;99.90
12853;DHT22;6495;51.808;7.478;2023-09-19T10:33:03;19.70;99.90
12853;DHT22;6495;51.808;7.478;2023-09-19T10:35:43;19.80;99.90
12853;DHT22;6495;51.808;7.478;2023-09-19T10:38:32;19.80;99.90
12853;DHT22;6495;51.808;7.478;2023-09-19T10:41:20;19.80;99.90
12853;DHT22;6495;51.808;7.478;2023-09-19T10:43:57;19.90;99.90
12853;DHT22;6495;51.808;7.478;2023-09-19T10:46:49;19.90;99.90
12853;DHT22;6495;51.808;7.478;2023-09-19T10:49:20;20.00;99.90
12853;DHT22;6495;51.808;7.478;2023-09-19T10:52:55;20.00;99.90
12853;DHT22;6495;51.808;7.478;2023-09-19T10:55:47;20.00;99.90
12853;DHT22;6495;51.808;7.478;2023-09-19T10:58:48;20.10;99.90
12853;DHT22;6495;51.808;7.478;2023-09-19T11:01:43;20.20;99.90
12853;DHT22;6495;51.808;7.478;2023-09-19T11:08:12;20.30;99.90
12853;DHT22;6495;51.808;7.478;2023-09-19T11:10:50;20.50;99.90
12853;DHT22;6495;51.808;7.478;2023-09-19T11:13:26;20.50;99.90
12853;DHT22;6495;51.808;7.478;2023-09-19T11:16:07;20.60;99.90
12853;DHT22;6495;51.808;7.478;2023-09-19T11:18:54;20.70;99.90
12853;DHT22;6495;51.808;7.478;2023-09-19T11:21:53;20.80;99.90
12853;DHT22;6495;51.808;7.478;2023-09-19T11:24:47;20.90;99.90
12853;DHT22;6495;51.808;7.478;2023-09-19T11:27:18;20.90;99.90
12853;DHT22;6495;51.808;7.478;2023-09-19T11:30:27;21.00;99.90
12853;DHT22;6495;51.808;7.478;2023-09-19T11:33:16;21.00;99.90
12853;DHT22;6495;51.808;7.478;2023-09-19T11:36:02;21.10;99.90
12853;DHT22;6495;51.808;7.478;2023-09-19T11:39:05;21.10;99.90
12853;DHT22;6495;51.808;7.478;2023-09-19T11:41:50;21.10;99.90
12853;DHT22;6495;51.808;7.478;2023-09-19T11:44:38;21.20;99.90
12853;DHT22;6495;51.808;7.478;2023-09-19T11:47:13;21.20;99.90
12853;DHT22;6495;51.808;7.478;2023-09-19T11:49:44;21.20;99.90
12853;DHT22;6495;51.808;7.478;2023-09-19T11:52:21;21.20;99.90
12853;DHT22;6495;51.808;7.478;2023-09-19T11:54:55;21.20;99.90
12853;DHT22;6495;51.808;7.478;2023-09-19T11:57:31;21.20;99.90
12853;DHT22;6495;51.808;7.478;2023-09-19T12:00:03;21.20;99.90
12853;DHT22;6495;51.808;7.478;2023-09-19T12:02:39;21.20;99.90
12853;DHT22;6495;51.808;7.478;2023-09-19T12:05:11;21.30;99.90
12853;DHT22;6495;51.808;7.478;2023-09-19T12:07:49;21.30;99.90
12853;DHT22;6495;51.808;7.478;2023-09-19T12:10:18;21.40;99.90
12853;DHT22;6495;51.808;7.478;2023-09-19T12:12:52;21.40;99.90
12853;DHT22;6495;51.808;7.478;2023-09-19T12:15:24;21.40;99.90
12853;DHT22;6495;51.808;7.478;2023-09-19T12:17:56;21.40;99.90
12853;DHT22;6495;51.808;7.478;2023-09-19T12:20:42;21.40;99.90
12853;DHT22;6495;51.808;7.478;2023-09-19T12:23:16;21.40;99.90
12853;DHT22;6495;51.808;7.478;2023-09-19T12:25:46;21.40;99.90
12853;DHT22;6495;51.808;7.478;2023-09-19T12:28:20;21.40;99.90
12853;DHT22;6495;51.808;7.478;2023-09-19T12:30:49;21.40;99.90
12853;DHT22;6495;51.808;7.478;2023-09-19T12:33:19;21.40;99.90
12853;DHT22;6495;51.808;7.478;2023-09-19T12:35:52;21.40;99.90
12853;DHT22;6495;51.808;7.478;2023-09-19T12:38:32;21.40;99.90
12853;DHT22;6495;51.808;7.478;2023-09-19T12:41:04;21.40;99.90
12853;DHT22;6495;51.808;7.478;2023-09-19T12:43:36;21.30;99.90
12853;DHT22;6495;51.808;7.478;2023-09-19T12:46:07;21.40;99.90
12853;DHT22;6495;51.808;7.478;2023-09-19T12:48:35;21.40;99.90
12853;DHT22;6495;51.808;7.478;2023-09-19T12:51:06;21.40;99.90
12853;DHT22;6495;51.808;7.478;2023-09-19T12:53:37;21.40;99.90
12853;DHT22;6495;51.808;7.478;2023-09-19T12:56:15;21.30;99.90
12853;DHT22;6495;51.808;7.478;2023-09-19T12:58:51;21.30;99.90
12853;DHT22;6495;51.808;7.478;2023-09-19T13:01:22;21.30;99.90
12853;DHT22;6495;51.808;7.478;2023-09-19T13:04:14;21.20;99.90
12853;DHT22;6495;51.808;7.478;2023-09-19T13:06:47;21.20;99.90
12853;DHT22;6495;51.808;7.478;2023-09-19T13:09:28;21.20;99.90
12853;DHT22;6495;51.808;7.478;2023-09-19T13:12:04;21.20;99.90
12853;DHT22;6495;51.808;7.478;2023-09-19T13:14:36;21.20;99.90
12853;DHT22;6495;51.808;7.478;2023-09-19T13:17:08;21.20;99.90
12853;DHT22;6495;51.808;7.478;2023-09-19T13:19:45;21.20;99.90
12853;DHT22;6495;51.808;7.478;2023-09-19T13:22:39;21.30;99.90
12853;DHT22;6495;51.808;7.478;2023-09-19T13:25:14;21.30;99.90
12853;DHT22;6495;51.808;7.478;2023-09-19T13:36:48;21.40;99.90
12853;DHT22;6495;51.808;7.478;2023-09-19T13:39:17;21.50;99.90
12853;DHT22;6495;51.808;7.478;2023-09-19T13:41:50;21.60;99.90
12853;DHT22;6495;51.808;7.478;2023-09-19T13:46:06;21.60;99.90
12853;DHT22;6495;51.808;7.478;2023-09-19T13:58:50;21.70;99.90
12853;DHT22;6495;51.808;7.478;2023-09-19T14:01:18;21.70;99.90
12853;DHT22;6495;51.808;7.478;2023-09-19T14:03:47;21.70;99.90
12853;DHT22;6495;51.808;7.478;2023-09-19T14:06:16;21.70;99.90
12853;DHT22;6495;51.808;7.478;2023-09-19T14:08:47;21.70;99.90
12853;DHT22;6495;51.808;7.478;2023-09-19T14:11:17;21.70;99.90
12853;DHT22;6495;51.808;7.478;2023-09-19T14:13:45;21.70;99.90
12853;DHT22;6495;51.808;7.478;2023-09-19T14:16:17;21.70;99.90
12853;DHT22;6495;51.808;7.478;2023-09-19T14:18:46;21.70;99.90
12853;DHT22;6495;51.808;7.478;2023-09-19T14:21:14;21.60;99.90
12853;DHT22;6495;51.808;7.478;2023-09-19T14:23:42;21.50;99.90
12853;DHT22;6495;51.808;7.478;2023-09-19T14:26:10;21.50;99.90
12853;DHT22;6495;51.808;7.478;2023-09-19T14:28:39;21.50;99.90
12853;DHT22;6495;51.808;7.478;2023-09-19T14:31:09;21.40;99.90
12853;DHT22;6495;51.808;7.478;2023-09-19T14:33:39;21.40;99.90
12853;DHT22;6495;51.808;7.478;2023-09-19T14:36:09;21.30;99.90
12853;DHT22;6495;51.808;7.478;2023-09-19T14:38:41;21.30;99.90
12853;DHT22;6495;51.808;7.478;2023-09-19T14:41:09;21.30;99.90
12853;DHT22;6495;51.808;7.478;2023-09-19T14:43:37;21.20;99.90
12853;DHT22;6495;51.808;7.478;2023-09-19T14:46:06;21.20;99.90
12853;DHT22;6495;51.808;7.478;2023-09-19T14:48:41;21.10;99.90
12853;DHT22;6495;51.808;7.478;2023-09-19T14:51:19;21.10;99.90
12853;DHT22;6495;51.808;7.478;2023-09-19T14:53:48;21.00;99.90
12853;DHT22;6495;51.808;7.478;2023-09-19T14:56:18;21.00;99.90
12853;DHT22;6495;51.808;7.478;2023-09-19T14:58:51;20.90;99.90
12853;DHT22;6495;51.808;7.478;2023-09-19T15:01:22;20.90;99.90
12853;DHT22;6495;51.808;7.478;2023-09-19T15:03:58;20.90;99.90
12853;DHT22;6495;51.808;7.478;2023-09-19T15:06:37;20.90;99.90
12853;DHT22;6495;51.808;7.478;2023-09-19T15:09:13;20.80;99.90
12853;DHT22;6495;51.808;7.478;2023-09-19T15:11:42;20.80;99.90
12853;DHT22;6495;51.808;7.478;2023-09-19T15:14:11;20.80;99.90
12853;DHT22;6495;51.808;7.478;2023-09-19T15:16:42;20.70;99.90
12853;DHT22;6495;51.808;7.478;2023-09-19T15:19:14;20.70;99.90
12853;DHT22;6495;51.808;7.478;2023-09-19T15:21:45;20.70;99.90
12853;DHT22;6495;51.808;7.478;2023-09-19T15:24:13;20.70;99.90
12853;DHT22;6495;51.808;7.478;2023-09-19T15:26:45;20.70;99.90
12853;DHT22;6495;51.808;7.478;2023-09-19T15:29:15;20.70;99.90
12853;DHT22;6495;51.808;7.478;2023-09-19T15:31:47;20.60;99.90
12853;DHT22;6495;51.808;7.478;2023-09-19T15:34:17;20.60;99.90
12853;DHT22;6495;51.808;7.478;2023-09-19T15:36:46;20.60;99.90
12853;DHT22;6495;51.808;7.478;2023-09-19T15:39:14;20.60;99.90
12853;DHT22;6495;51.808;7.478;2023-09-19T15:41:45;20.60;99.90
12853;DHT22;6495;51.808;7.478;2023-09-19T15:44:17;20.60;99.90
12853;DHT22;6495;51.808;7.478;2023-09-19T15:46:46;20.60;99.90
12853;DHT22;6495;51.808;7.478;2023-09-19T15:49:19;20.60;99.90
12853;DHT22;6495;51.808;7.478;2023-09-19T15:51:48;20.60;99.90
12853;DHT22;6495;51.808;7.478;2023-09-19T15:54:16;20.60;99.90
12853;DHT22;6495;51.808;7.478;2023-09-19T15:56:46;20.60;99.90
12853;DHT22;6495;51.808;7.478;2023-09-19T15:59:19;20.60;99.90
12853;DHT22;6495;51.808;7.478;2023-09-19T16:01:50;20.60;99.90
12853;DHT22;6495;51.808;7.478;2023-09-19T16:04:20;20.70;99.90
12853;DHT22;6495;51.808;7.478;2023-09-19T16:06:48;20.70;99.90
12853;DHT22;6495;51.808;7.478;2023-09-19T16:09:17;20.60;99.90
12853;DHT22;6495;51.808;7.478;2023-09-19T16:11:47;20.60;99.90
12853;DHT22;6495;51.808;7.478;2023-09-19T16:14:17;20.60;99.90
12853;DHT22;6495;51.808;7.478;2023-09-19T16:16:46;20.50;99.90
12853;DHT22;6495;51.808;7.478;2023-09-19T16:19:14;20.50;99.90
12853;DHT22;6495;51.808;7.478;2023-09-19T16:21:45;20.40;99.90
12853;DHT22;6495;51.808;7.478;2023-09-19T16:24:14;20.40;99.90
12853;DHT22;6495;51.808;7.478;2023-09-19T16:26:43;20.40;99.90
12853;DHT22;6495;51.808;7.478;2023-09-19T16:29:12;20.30;99.90
12853;DHT22;6495;51.808;7.478;2023-09-19T16:31:41;20.30;99.90
12853;DHT22;6495;51.808;7.478;2023-09-19T16:34:09;20.30;99.90
12853;DHT22;6495;51.808;7.478;2023-09-19T16:36:38;20.30;99.90
12853;DHT22;6495;51.808;7.478;2023-09-19T16:39:08;20.20;99.90
12853;DHT22;6495;51.808;7.478;2023-09-19T16:41:36;20.20;99.90
12853;DHT22;6495;51.808;7.478;2023-09-19T16:44:05;20.20;99.90
12853;DHT22;6495;51.808;7.478;2023-09-19T16:46:38;20.10;99.90
12853;DHT22;6495;51.808;7.478;2023-09-19T16:49:08;20.10;99.90
12853;DHT22;6495;51.808;7.478;2023-09-19T16:51:36;20.10;99.90
12853;DHT22;6495;51.808;7.478;2023-09-19T16:54:08;20.00;99.90